Station Historical Data
Daily Summary for April 7, 2012 Units:  Both    English   Metric
« Previous Day
Next Day »
Daily Weekly Monthly Yearly Custom
  High: Low: Average:
Temperature: 72.9 °F /  22.7 °C 43.2 °F /  6.2 °C 58.7 °F /  14.8 °C
Dew Point: 55.3 °F /  12.9 °C 39.0 °F /  3.9 °C 46.7 °F /  8.2 °C
Humidity: 86% 44% 66%
Wind Speed: 11.0mph /  17.7km/h - 2.6mph /  4.2km/h
Wind Gust: 17.0mph /  27.4km/h - -
Wind- - ESE
Pressure: 30.22 in /  1023.2 hPa 30.09 in /  1018.8 hPa -
Precipitation: 0.00 in /  0 mm    
Historical Graphs
 
 
Tabular Data for April 7, 2012
Time Temperature Dew Point Pressure Wind Wind Speed Wind Gust Humidity Rainfall Rate (Hourly) Conditions
00:00 52.1 °F /  11.2 °C 39.9 °F /  4.4 °C 30.09in /  1018.8hPa NNW 3.0mph /  4.8km/h 7.0mph /  11.3km/h 63% 0.00in /  0mm
00:03 52.0 °F /  11.1 °C 39.8 °F /  4.3 °C 30.09in /  1018.8hPa NE 6.0mph /  9.7km/h 6.0mph /  9.7km/h 63% 0.00in /  0mm
00:08 52.3 °F /  11.3 °C 39.7 °F /  4.3 °C 30.09in /  1018.8hPa NNE 3.0mph /  4.8km/h 8.0mph /  12.9km/h 62% 0.00in /  0mm
00:13 52.2 °F /  11.2 °C 39.6 °F /  4.2 °C 30.09in /  1018.8hPa NE 2.0mph /  3.2km/h 4.0mph /  6.4km/h 62% 0.00in /  0mm
00:18 52.1 °F /  11.2 °C 39.9 °F /  4.4 °C 30.09in /  1018.8hPa NE 5.0mph /  8km/h 6.0mph /  9.7km/h 63% 0.00in /  0mm
00:23 52.0 °F /  11.1 °C 39.8 °F /  4.3 °C 30.09in /  1018.8hPa ENE 5.0mph /  8km/h 7.0mph /  11.3km/h 63% 0.00in /  0mm
00:28 52.1 °F /  11.2 °C 39.5 °F /  4.2 °C 30.09in /  1018.8hPa NE 3.0mph /  4.8km/h 7.0mph /  11.3km/h 62% 0.00in /  0mm
00:33 52.0 °F /  11.1 °C 39.8 °F /  4.3 °C 30.09in /  1018.8hPa NE 3.0mph /  4.8km/h 6.0mph /  9.7km/h 63% 0.00in /  0mm
00:38 51.8 °F /  11 °C 39.6 °F /  4.2 °C 30.09in /  1018.8hPa NNE 5.0mph /  8km/h 5.0mph /  8km/h 63% 0.00in /  0mm
00:43 51.7 °F /  10.9 °C 39.9 °F /  4.4 °C 30.10in /  1019.2hPa NE 4.0mph /  6.4km/h 5.0mph /  8km/h 64% 0.00in /  0mm
00:48 51.7 °F /  10.9 °C 39.9 °F /  4.4 °C 30.09in /  1018.8hPa NE 3.0mph /  4.8km/h 8.0mph /  12.9km/h 64% 0.00in /  0mm
00:53 51.6 °F /  10.9 °C 39.8 °F /  4.3 °C 30.10in /  1019.2hPa NNE 3.0mph /  4.8km/h 8.0mph /  12.9km/h 64% 0.00in /  0mm
00:58 51.4 °F /  10.8 °C 39.7 °F /  4.3 °C 30.10in /  1019.2hPa NNE 3.0mph /  4.8km/h 6.0mph /  9.7km/h 64% 0.00in /  0mm
01:03 51.3 °F /  10.7 °C 40.0 °F /  4.4 °C 30.10in /  1019.2hPa NE 3.0mph /  4.8km/h 5.0mph /  8km/h 65% 0.00in /  0mm
01:08 51.3 °F /  10.7 °C 40.0 °F /  4.4 °C 30.10in /  1019.2hPa North 7.0mph /  11.3km/h 7.0mph /  11.3km/h 65% 0.00in /  0mm
01:13 51.2 °F /  10.7 °C 39.8 °F /  4.3 °C 30.10in /  1019.2hPa NE 6.0mph /  9.7km/h 6.0mph /  9.7km/h 65% 0.00in /  0mm
01:18 51.1 °F /  10.6 °C 39.8 °F /  4.3 °C 30.10in /  1019.2hPa NNE 3.0mph /  4.8km/h 5.0mph /  8km/h 65% 0.00in /  0mm
01:23 51.0 °F /  10.6 °C 39.7 °F /  4.3 °C 30.10in /  1019.2hPa NE 2.0mph /  3.2km/h 6.0mph /  9.7km/h 65% 0.00in /  0mm
01:28 50.9 °F /  10.5 °C 40.0 °F /  4.4 °C 30.10in /  1019.2hPa NE 4.0mph /  6.4km/h 6.0mph /  9.7km/h 66% 0.00in /  0mm
01:33 50.8 °F /  10.4 °C 39.9 °F /  4.4 °C 30.10in /  1019.2hPa NNE 3.0mph /  4.8km/h 7.0mph /  11.3km/h 66% 0.00in /  0mm
01:38 50.6 °F /  10.3 °C 39.7 °F /  4.3 °C 30.10in /  1019.2hPa NE 4.0mph /  6.4km/h 6.0mph /  9.7km/h 66% 0.00in /  0mm
01:43 50.5 °F /  10.3 °C 40.0 °F /  4.4 °C 30.10in /  1019.2hPa NNE 2.0mph /  3.2km/h 5.0mph /  8km/h 67% 0.00in /  0mm
01:48 50.2 °F /  10.1 °C 39.7 °F /  4.3 °C 30.10in /  1019.2hPa NNE 2.0mph /  3.2km/h 4.0mph /  6.4km/h 67% 0.00in /  0mm
01:54 49.9 °F /  9.9 °C 39.8 °F /  4.3 °C 30.10in /  1019.2hPa NE 4.0mph /  6.4km/h 5.0mph /  8km/h 68% 0.00in /  0mm
01:59 49.9 °F /  9.9 °C 39.8 °F /  4.3 °C 30.10in /  1019.2hPa NE 2.0mph /  3.2km/h 7.0mph /  11.3km/h 68% 0.00in /  0mm
02:04 49.7 °F /  9.8 °C 40.0 °F /  4.4 °C 30.10in /  1019.2hPa NE 5.0mph /  8km/h 5.0mph /  8km/h 69% 0.00in /  0mm
02:09 49.6 °F /  9.8 °C 39.9 °F /  4.4 °C 30.10in /  1019.2hPa NE 6.0mph /  9.7km/h 6.0mph /  9.7km/h 69% 0.00in /  0mm
02:14 49.5 °F /  9.7 °C 39.8 °F /  4.3 °C 30.10in /  1019.2hPa NE 2.0mph /  3.2km/h 5.0mph /  8km/h 69% 0.00in /  0mm
02:19 49.4 °F /  9.7 °C 40.0 °F /  4.4 °C 30.10in /  1019.2hPa NE 3.0mph /  4.8km/h 5.0mph /  8km/h 70% 0.00in /  0mm
02:24 49.3 °F /  9.6 °C 39.9 °F /  4.4 °C 30.10in /  1019.2hPa NNE 5.0mph /  8km/h 5.0mph /  8km/h 70% 0.00in /  0mm
02:29 49.3 °F /  9.6 °C 39.9 °F /  4.4 °C 30.10in /  1019.2hPa NE 4.0mph /  6.4km/h 5.0mph /  8km/h 70% 0.00in /  0mm
02:34 49.1 °F /  9.5 °C 39.8 °F /  4.3 °C 30.10in /  1019.2hPa NE 2.0mph /  3.2km/h 6.0mph /  9.7km/h 70% 0.00in /  0mm
02:39 49.0 °F /  9.4 °C 40.0 °F /  4.4 °C 30.10in /  1019.2hPa NNE 2.0mph /  3.2km/h 6.0mph /  9.7km/h 71% 0.00in /  0mm
02:44 48.9 °F /  9.4 °C 39.9 °F /  4.4 °C 30.10in /  1019.2hPa NE 2.0mph /  3.2km/h 6.0mph /  9.7km/h 71% 0.00in /  0mm
02:49 48.6 °F /  9.2 °C 39.6 °F /  4.2 °C 30.10in /  1019.2hPa NNE 5.0mph /  8km/h 5.0mph /  8km/h 71% 0.00in /  0mm
02:54 48.3 °F /  9.1 °C 39.7 °F /  4.3 °C 30.10in /  1019.2hPa NNE 1.0mph /  1.6km/h 4.0mph /  6.4km/h 72% 0.00in /  0mm
02:59 48.0 °F /  8.9 °C 39.8 °F /  4.3 °C 30.10in /  1019.2hPa NNE 2.0mph /  3.2km/h 4.0mph /  6.4km/h 73% 0.00in /  0mm
03:00 48.0 °F /  8.9 °C 39.8 °F /  4.3 °C 30.10in /  1019.2hPa NNE 2.0mph /  3.2km/h 4.0mph /  6.4km/h 73% 0.00in /  0mm
03:05 47.7 °F /  8.7 °C 39.5 °F /  4.2 °C 30.10in /  1019.2hPa NNE 3.0mph /  4.8km/h 4.0mph /  6.4km/h 73% 0.00in /  0mm
03:10 47.6 °F /  8.7 °C 39.7 °F /  4.3 °C 30.10in /  1019.2hPa NNE 2.0mph /  3.2km/h 3.0mph /  4.8km/h 74% 0.00in /  0mm
03:15 47.6 °F /  8.7 °C 39.7 °F /  4.3 °C 30.10in /  1019.2hPa NE 2.0mph /  3.2km/h 4.0mph /  6.4km/h 74% 0.00in /  0mm
03:20 47.5 °F /  8.6 °C 39.6 °F /  4.2 °C 30.10in /  1019.2hPa NNE 2.0mph /  3.2km/h 4.0mph /  6.4km/h 74% 0.00in /  0mm
03:25 47.5 °F /  8.6 °C 39.6 °F /  4.2 °C 30.10in /  1019.2hPa NNE 1.0mph /  1.6km/h 3.0mph /  4.8km/h 74% 0.00in /  0mm
03:30 47.4 °F /  8.6 °C 39.5 °F /  4.2 °C 30.10in /  1019.2hPa NNE 3.0mph /  4.8km/h 3.0mph /  4.8km/h 74% 0.00in /  0mm
03:35 47.2 °F /  8.4 °C 39.7 °F /  4.3 °C 30.11in /  1019.5hPa NNE 1.0mph /  1.6km/h 2.0mph /  3.2km/h 75% 0.00in /  0mm
03:41 47.0 °F /  8.3 °C 39.5 °F /  4.2 °C 30.11in /  1019.5hPa NNE 2.0mph /  3.2km/h 2.0mph /  3.2km/h 75% 0.00in /  0mm
03:46 46.7 °F /  8.2 °C 39.5 °F /  4.2 °C 30.11in /  1019.5hPa North 1.0mph /  1.6km/h 2.0mph /  3.2km/h 76% 0.00in /  0mm
03:51 46.6 °F /  8.1 °C 39.5 °F /  4.2 °C 30.11in /  1019.5hPa NNE 1.0mph /  1.6km/h 2.0mph /  3.2km/h 76% 0.00in /  0mm
03:56 46.5 °F /  8.1 °C 39.4 °F /  4.1 °C 30.11in /  1019.5hPa NNE 2.0mph /  3.2km/h 2.0mph /  3.2km/h 76% 0.00in /  0mm
04:01 46.5 °F /  8.1 °C 39.7 °F /  4.3 °C 30.11in /  1019.5hPa NE 1.0mph /  1.6km/h 3.0mph /  4.8km/h 77% 0.00in /  0mm
04:06 46.4 °F /  8 °C 39.6 °F /  4.2 °C 30.11in /  1019.5hPa NE 2.0mph /  3.2km/h 3.0mph /  4.8km/h 77% 0.00in /  0mm
04:11 46.3 °F /  7.9 °C 39.5 °F /  4.2 °C 30.11in /  1019.5hPa NNE 2.0mph /  3.2km/h 3.0mph /  4.8km/h 77% 0.00in /  0mm
04:16 46.3 °F /  7.9 °C 39.5 °F /  4.2 °C 30.11in /  1019.5hPa NNE 1.0mph /  1.6km/h 2.0mph /  3.2km/h 77% 0.00in /  0mm
04:21 46.3 °F /  7.9 °C 39.5 °F /  4.2 °C 30.11in /  1019.5hPa NNE 3.0mph /  4.8km/h 4.0mph /  6.4km/h 77% 0.00in /  0mm
04:27 46.3 °F /  7.9 °C 39.5 °F /  4.2 °C 30.11in /  1019.5hPa NNE 2.0mph /  3.2km/h 4.0mph /  6.4km/h 77% 0.00in /  0mm
04:32 46.4 °F /  8 °C 39.6 °F /  4.2 °C 30.11in /  1019.5hPa North 3.0mph /  4.8km/h 4.0mph /  6.4km/h 77% 0.00in /  0mm
04:37 46.4 °F /  8 °C 39.6 °F /  4.2 °C 30.11in /  1019.5hPa NE 3.0mph /  4.8km/h 4.0mph /  6.4km/h 77% 0.00in /  0mm
04:42 46.4 °F /  8 °C 39.6 °F /  4.2 °C 30.11in /  1019.5hPa NE 3.0mph /  4.8km/h 5.0mph /  8km/h 77% 0.00in /  0mm
04:47 46.5 °F /  8.1 °C 39.7 °F /  4.3 °C 30.11in /  1019.5hPa NE 4.0mph /  6.4km/h 7.0mph /  11.3km/h 77% 0.00in /  0mm
04:52 46.5 °F /  8.1 °C 39.7 °F /  4.3 °C 30.11in /  1019.5hPa NNE 5.0mph /  8km/h 5.0mph /  8km/h 77% 0.00in /  0mm
04:57 46.5 °F /  8.1 °C 39.7 °F /  4.3 °C 30.11in /  1019.5hPa NE 5.0mph /  8km/h 6.0mph /  9.7km/h 77% 0.00in /  0mm
05:02 46.7 °F /  8.2 °C 39.9 °F /  4.4 °C 30.11in /  1019.5hPa NE 5.0mph /  8km/h 5.0mph /  8km/h 77% 0.00in /  0mm
05:07 46.7 °F /  8.2 °C 39.9 °F /  4.4 °C 30.11in /  1019.5hPa NNE 6.0mph /  9.7km/h 7.0mph /  11.3km/h 77% 0.00in /  0mm
05:13 46.5 °F /  8.1 °C 39.7 °F /  4.3 °C 30.11in /  1019.5hPa NNE 2.0mph /  3.2km/h 5.0mph /  8km/h 77% 0.00in /  0mm
05:18 46.3 °F /  7.9 °C 39.8 °F /  4.3 °C 30.12in /  1019.9hPa North 4.0mph /  6.4km/h 4.0mph /  6.4km/h 78% 0.00in /  0mm
05:23 46.1 °F /  7.8 °C 39.6 °F /  4.2 °C 30.12in /  1019.9hPa NNW 4.0mph /  6.4km/h 5.0mph /  8km/h 78% 0.00in /  0mm
05:28 46.1 °F /  7.8 °C 39.6 °F /  4.2 °C 30.12in /  1019.9hPa NE 3.0mph /  4.8km/h 5.0mph /  8km/h 78% 0.00in /  0mm
05:33 46.0 °F /  7.8 °C 39.5 °F /  4.2 °C 30.12in /  1019.9hPa NNE 2.0mph /  3.2km/h 4.0mph /  6.4km/h 78% 0.00in /  0mm
05:38 46.0 °F /  7.8 °C 39.5 °F /  4.2 °C 30.13in /  1020.2hPa NE 3.0mph /  4.8km/h 5.0mph /  8km/h 78% 0.00in /  0mm
05:43 45.7 °F /  7.6 °C 39.6 °F /  4.2 °C 30.13in /  1020.2hPa NE 4.0mph /  6.4km/h 5.0mph /  8km/h 79% 0.00in /  0mm
05:48 45.7 °F /  7.6 °C 39.6 °F /  4.2 °C 30.13in /  1020.2hPa NNE 2.0mph /  3.2km/h 4.0mph /  6.4km/h 79% 0.00in /  0mm
05:54 45.5 °F /  7.5 °C 39.4 °F /  4.1 °C 30.13in /  1020.2hPa NNE 2.0mph /  3.2km/h 5.0mph /  8km/h 79% 0.00in /  0mm
05:59 45.2 °F /  7.3 °C 39.4 °F /  4.1 °C 30.13in /  1020.2hPa North 3.0mph /  4.8km/h 5.0mph /  8km/h 80% 0.00in /  0mm
06:04 45.1 °F /  7.3 °C 39.3 °F /  4.1 °C 30.14in /  1020.5hPa NNE 4.0mph /  6.4km/h 4.0mph /  6.4km/h 80% 0.00in /  0mm
06:09 45.1 °F /  7.3 °C 39.3 °F /  4.1 °C 30.14in /  1020.5hPa NE 3.0mph /  4.8km/h 3.0mph /  4.8km/h 80% 0.00in /  0mm
06:14 45.1 °F /  7.3 °C 39.3 °F /  4.1 °C 30.14in /  1020.5hPa NNE 1.0mph /  1.6km/h 4.0mph /  6.4km/h 80% 0.00in /  0mm
06:19 45.2 °F /  7.3 °C 39.4 °F /  4.1 °C 30.14in /  1020.5hPa NNE 2.0mph /  3.2km/h 3.0mph /  4.8km/h 80% 0.00in /  0mm
06:24 45.2 °F /  7.3 °C 39.4 °F /  4.1 °C 30.14in /  1020.5hPa NE 1.0mph /  1.6km/h 3.0mph /  4.8km/h 80% 0.00in /  0mm
06:29 45.1 °F /  7.3 °C 39.6 °F /  4.2 °C 30.14in /  1020.5hPa NNE 1.0mph /  1.6km/h 2.0mph /  3.2km/h 81% 0.00in /  0mm
06:34 44.9 °F /  7.2 °C 39.4 °F /  4.1 °C 30.14in /  1020.5hPa NE 1.0mph /  1.6km/h 3.0mph /  4.8km/h 81% 0.00in /  0mm
06:39 44.8 °F /  7.1 °C 39.3 °F /  4.1 °C 30.14in /  1020.5hPa NE 2.0mph /  3.2km/h 4.0mph /  6.4km/h 81% 0.00in /  0mm
06:44 44.9 °F /  7.2 °C 39.4 °F /  4.1 °C 30.15in /  1020.9hPa ENE 2.0mph /  3.2km/h 3.0mph /  4.8km/h 81% 0.00in /  0mm
06:49 44.8 °F /  7.1 °C 39.3 °F /  4.1 °C 30.15in /  1020.9hPa NE 1.0mph /  1.6km/h 2.0mph /  3.2km/h 81% 0.00in /  0mm
06:55 44.8 °F /  7.1 °C 39.3 °F /  4.1 °C 30.15in /  1020.9hPa ENE 1.0mph /  1.6km/h 2.0mph /  3.2km/h 81% 0.00in /  0mm
07:00 44.8 °F /  7.1 °C 39.3 °F /  4.1 °C 30.15in /  1020.9hPa NNE 2.0mph /  3.2km/h 4.0mph /  6.4km/h 81% 0.00in /  0mm
07:05 44.7 °F /  7.1 °C 39.5 °F /  4.2 °C 30.15in /  1020.9hPa NE 2.0mph /  3.2km/h 3.0mph /  4.8km/h 82% 0.00in /  0mm
07:10 44.6 °F /  7 °C 39.5 °F /  4.2 °C 30.16in /  1021.2hPa NE 2.0mph /  3.2km/h 2.0mph /  3.2km/h 82% 0.00in /  0mm
07:15 44.5 °F /  6.9 °C 39.4 °F /  4.1 °C 30.16in /  1021.2hPa NE 1.0mph /  1.6km/h 2.0mph /  3.2km/h 82% 0.00in /  0mm
07:20 44.3 °F /  6.8 °C 39.5 °F /  4.2 °C 30.16in /  1021.2hPa NE 1.0mph /  1.6km/h 2.0mph /  3.2km/h 83% 0.00in /  0mm
07:25 44.1 °F /  6.7 °C 39.3 °F /  4.1 °C 30.17in /  1021.6hPa ENE 1.0mph /  1.6km/h 1.0mph /  1.6km/h 83% 0.00in /  0mm
07:30 44.0 °F /  6.7 °C 39.2 °F /  4 °C 30.17in /  1021.6hPa ENE 1.0mph /  1.6km/h 2.0mph /  3.2km/h 83% 0.00in /  0mm
07:35 43.9 °F /  6.6 °C 39.1 °F /  3.9 °C 30.18in /  1021.9hPa ENE 1.0mph /  1.6km/h 1.0mph /  1.6km/h 83% 0.00in /  0mm
07:41 43.8 °F /  6.6 °C 39.3 °F /  4.1 °C 30.18in /  1021.9hPa Calm   1.0mph /  1.6km/h 84% 0.00in /  0mm
07:46 43.8 °F /  6.6 °C 39.3 °F /  4.1 °C 30.19in /  1022.2hPa Calm     84% 0.00in /  0mm
07:51 43.5 °F /  6.4 °C 39.0 °F /  3.9 °C 30.19in /  1022.2hPa Calm     84% 0.00in /  0mm
07:56 43.2 °F /  6.2 °C 39.0 °F /  3.9 °C 30.19in /  1022.2hPa Calm   1.0mph /  1.6km/h 85% 0.00in /  0mm
08:01 43.3 °F /  6.3 °C 39.4 °F /  4.1 °C 30.19in /  1022.2hPa Calm   1.0mph /  1.6km/h 86% 0.00in /  0mm
08:06 44.1 °F /  6.7 °C 39.9 °F /  4.4 °C 30.20in /  1022.6hPa ENE 1.0mph /  1.6km/h 2.0mph /  3.2km/h 85% 0.00in /  0mm
08:11 45.3 °F /  7.4 °C 40.8 °F /  4.9 °C 30.20in /  1022.6hPa Calm   1.0mph /  1.6km/h 84% 0.00in /  0mm
08:16 46.2 °F /  7.9 °C 40.7 °F /  4.8 °C 30.20in /  1022.6hPa East 1.0mph /  1.6km/h 2.0mph /  3.2km/h 81% 0.00in /  0mm
08:21 46.7 °F /  8.2 °C 40.9 °F /  4.9 °C 30.20in /  1022.6hPa NE 1.0mph /  1.6km/h 2.0mph /  3.2km/h 80% 0.00in /  0mm
08:26 47.2 °F /  8.4 °C 41.4 °F /  5.2 °C 30.20in /  1022.6hPa ENE 1.0mph /  1.6km/h 3.0mph /  4.8km/h 80% 0.00in /  0mm
08:31 47.6 °F /  8.7 °C 41.4 °F /  5.2 °C 30.21in /  1022.9hPa East 1.0mph /  1.6km/h 3.0mph /  4.8km/h 79% 0.00in /  0mm
08:36 48.1 °F /  8.9 °C 41.9 °F /  5.5 °C 30.21in /  1022.9hPa East 2.0mph /  3.2km/h 3.0mph /  4.8km/h 79% 0.00in /  0mm
08:41 48.7 °F /  9.3 °C 42.2 °F /  5.7 °C 30.21in /  1022.9hPa ENE 3.0mph /  4.8km/h 5.0mph /  8km/h 78% 0.00in /  0mm
08:46 49.1 °F /  9.5 °C 41.9 °F /  5.5 °C 30.21in /  1022.9hPa ENE 2.0mph /  3.2km/h 5.0mph /  8km/h 76% 0.00in /  0mm
08:51 49.7 °F /  9.8 °C 42.5 °F /  5.8 °C 30.21in /  1022.9hPa NNE 2.0mph /  3.2km/h 4.0mph /  6.4km/h 76% 0.00in /  0mm
08:56 50.5 °F /  10.3 °C 42.5 °F /  5.8 °C 30.21in /  1022.9hPa NE 3.0mph /  4.8km/h 3.0mph /  4.8km/h 74% 0.00in /  0mm
09:01 50.9 °F /  10.5 °C 42.2 °F /  5.7 °C 30.21in /  1022.9hPa ENE 5.0mph /  8km/h 6.0mph /  9.7km/h 72% 0.00in /  0mm
09:06 51.4 °F /  10.8 °C 42.0 °F /  5.6 °C 30.21in /  1022.9hPa ENE 4.0mph /  6.4km/h 6.0mph /  9.7km/h 70% 0.00in /  0mm
09:11 51.9 °F /  11.1 °C 42.1 °F /  5.6 °C 30.21in /  1022.9hPa East 2.0mph /  3.2km/h 5.0mph /  8km/h 69% 0.00in /  0mm
09:17 52.3 °F /  11.3 °C 42.1 °F /  5.6 °C 30.21in /  1022.9hPa ESE 2.0mph /  3.2km/h 6.0mph /  9.7km/h 68% 0.00in /  0mm
09:22 52.6 °F /  11.4 °C 43.1 °F /  6.2 °C 30.22in /  1023.2hPa ESE 3.0mph /  4.8km/h 5.0mph /  8km/h 70% 0.00in /  0mm
09:27 53.3 °F /  11.8 °C 43.4 °F /  6.3 °C 30.22in /  1023.2hPa ESE 2.0mph /  3.2km/h 5.0mph /  8km/h 69% 0.00in /  0mm
09:32 53.8 °F /  12.1 °C 43.1 °F /  6.2 °C 30.22in /  1023.2hPa East 3.0mph /  4.8km/h 6.0mph /  9.7km/h 67% 0.00in /  0mm
09:37 54.3 °F /  12.4 °C 43.6 °F /  6.4 °C 30.22in /  1023.2hPa ESE 3.0mph /  4.8km/h 5.0mph /  8km/h 67% 0.00in /  0mm
09:42 54.9 °F /  12.7 °C 43.4 °F /  6.3 °C 30.22in /  1023.2hPa East 4.0mph /  6.4km/h 7.0mph /  11.3km/h 65% 0.00in /  0mm
09:47 55.3 °F /  12.9 °C 42.5 °F /  5.8 °C 30.22in /  1023.2hPa ESE 5.0mph /  8km/h 5.0mph /  8km/h 62% 0.00in /  0mm
09:52 55.7 °F /  13.2 °C 43.7 °F /  6.5 °C 30.22in /  1023.2hPa SE 3.0mph /  4.8km/h 5.0mph /  8km/h 64% 0.00in /  0mm
09:57 56.5 °F /  13.6 °C 43.7 °F /  6.5 °C 30.22in /  1023.2hPa East 4.0mph /  6.4km/h 6.0mph /  9.7km/h 62% 0.00in /  0mm
10:02 56.7 °F /  13.7 °C 44.3 °F /  6.8 °C 30.22in /  1023.2hPa ESE 4.0mph /  6.4km/h 5.0mph /  8km/h 63% 0.00in /  0mm
10:08 57.0 °F /  13.9 °C 41.9 °F /  5.5 °C 30.21in /  1022.9hPa ESE 4.0mph /  6.4km/h 6.0mph /  9.7km/h 57% 0.00in /  0mm
10:13 57.3 °F /  14.1 °C 43.5 °F /  6.4 °C 30.22in /  1023.2hPa SE 4.0mph /  6.4km/h 5.0mph /  8km/h 60% 0.00in /  0mm
10:18 58.0 °F /  14.4 °C 45.1 °F /  7.3 °C 30.22in /  1023.2hPa ESE 4.0mph /  6.4km/h 6.0mph /  9.7km/h 62% 0.00in /  0mm
10:23 58.5 °F /  14.7 °C 42.9 °F /  6.1 °C 30.22in /  1023.2hPa SE 7.0mph /  11.3km/h 9.0mph /  14.5km/h 56% 0.00in /  0mm
10:28 58.8 °F /  14.9 °C 44.5 °F /  6.9 °C 30.21in /  1022.9hPa SSE 4.0mph /  6.4km/h 8.0mph /  12.9km/h 59% 0.00in /  0mm
10:33 59.3 °F /  15.2 °C 44.5 °F /  6.9 °C 30.22in /  1023.2hPa SSE 5.0mph /  8km/h 7.0mph /  11.3km/h 58% 0.00in /  0mm
10:39 59.6 °F /  15.3 °C 43.4 °F /  6.3 °C 30.22in /  1023.2hPa SE 5.0mph /  8km/h 9.0mph /  14.5km/h 55% 0.00in /  0mm
10:44 60.1 °F /  15.6 °C 45.3 °F /  7.4 °C 30.21in /  1022.9hPa SE 6.0mph /  9.7km/h 9.0mph /  14.5km/h 58% 0.00in /  0mm
10:49 60.4 °F /  15.8 °C 45.6 °F /  7.6 °C 30.21in /  1022.9hPa ESE 6.0mph /  9.7km/h 9.0mph /  14.5km/h 58% 0.00in /  0mm
10:54 61.3 °F /  16.3 °C 45.0 °F /  7.2 °C 30.22in /  1023.2hPa SSE 7.0mph /  11.3km/h 9.0mph /  14.5km/h 55% 0.00in /  0mm
10:59 62.0 °F /  16.7 °C 45.7 °F /  7.6 °C 30.22in /  1023.2hPa SE 3.0mph /  4.8km/h 7.0mph /  11.3km/h 55% 0.00in /  0mm
11:04 62.5 °F /  16.9 °C 46.1 °F /  7.8 °C 30.22in /  1023.2hPa SSE 5.0mph /  8km/h 7.0mph /  11.3km/h 55% 0.00in /  0mm
11:09 62.7 °F /  17.1 °C 46.8 °F /  8.2 °C 30.22in /  1023.2hPa SSE 6.0mph /  9.7km/h 8.0mph /  12.9km/h 56% 0.00in /  0mm
11:14 62.9 °F /  17.2 °C 47.5 °F /  8.6 °C 30.22in /  1023.2hPa ESE 4.0mph /  6.4km/h 8.0mph /  12.9km/h 57% 0.00in /  0mm
11:19 63.4 °F /  17.4 °C 48.8 °F /  9.3 °C 30.22in /  1023.2hPa SE 9.0mph /  14.5km/h 9.0mph /  14.5km/h 59% 0.00in /  0mm
11:24 63.4 °F /  17.4 °C 49.3 °F /  9.6 °C 30.22in /  1023.2hPa SE 7.0mph /  11.3km/h 8.0mph /  12.9km/h 60% 0.00in /  0mm
11:29 64.0 °F /  17.8 °C 50.7 °F /  10.4 °C 30.22in /  1023.2hPa SSE 5.0mph /  8km/h 8.0mph /  12.9km/h 62% 0.00in /  0mm
11:34 64.3 °F /  17.9 °C 51.5 °F /  10.8 °C 30.22in /  1023.2hPa South 5.0mph /  8km/h 7.0mph /  11.3km/h 63% 0.00in /  0mm
11:39 64.6 °F /  18.1 °C 51.7 °F /  10.9 °C 30.22in /  1023.2hPa SE 5.0mph /  8km/h 9.0mph /  14.5km/h 63% 0.00in /  0mm
11:44 64.5 °F /  18.1 °C 51.6 °F /  10.9 °C 30.22in /  1023.2hPa SSE 8.0mph /  12.9km/h 8.0mph /  12.9km/h 63% 0.00in /  0mm
11:49 64.8 °F /  18.2 °C 52.8 °F /  11.6 °C 30.22in /  1023.2hPa SW 4.0mph /  6.4km/h 8.0mph /  12.9km/h 65% 0.00in /  0mm
11:54 65.2 °F /  18.4 °C 52.3 °F /  11.3 °C 30.22in /  1023.2hPa SSE 10.0mph /  16.1km/h 10.0mph /  16.1km/h 63% 0.00in /  0mm
11:59 65.2 °F /  18.4 °C 54.0 °F /  12.2 °C 30.22in /  1023.2hPa SSE 11.0mph /  17.7km/h 11.0mph /  17.7km/h 67% 0.00in /  0mm
12:04 65.5 °F /  18.6 °C 53.4 °F /  11.9 °C 30.22in /  1023.2hPa South 4.0mph /  6.4km/h 7.0mph /  11.3km/h 65% 0.00in /  0mm
12:09 66.0 °F /  18.9 °C 54.3 °F /  12.4 °C 30.21in /  1022.9hPa SE 9.0mph /  14.5km/h 10.0mph /  16.1km/h 66% 0.00in /  0mm
12:14 65.7 °F /  18.7 °C 54.5 °F /  12.5 °C 30.21in /  1022.9hPa SSE 7.0mph /  11.3km/h 9.0mph /  14.5km/h 67% 0.00in /  0mm
12:19 65.8 °F /  18.8 °C 53.7 °F /  12.1 °C 30.21in /  1022.9hPa SSE 4.0mph /  6.4km/h 9.0mph /  14.5km/h 65% 0.00in /  0mm
12:24 66.2 °F /  19 °C 54.5 °F /  12.5 °C 30.21in /  1022.9hPa South 6.0mph /  9.7km/h 11.0mph /  17.7km/h 66% 0.00in /  0mm
12:29 66.0 °F /  18.9 °C 53.9 °F /  12.2 °C 30.21in /  1022.9hPa South 4.0mph /  6.4km/h 7.0mph /  11.3km/h 65% 0.00in /  0mm
12:34 66.2 °F /  19 °C 52.8 °F /  11.6 °C 30.20in /  1022.6hPa WSW 3.0mph /  4.8km/h 7.0mph /  11.3km/h 62% 0.00in /  0mm
12:40 66.3 °F /  19.1 °C 53.3 °F /  11.8 °C 30.20in /  1022.6hPa SW 7.0mph /  11.3km/h 7.0mph /  11.3km/h 63% 0.00in /  0mm
12:45 67.0 °F /  19.4 °C 55.3 °F /  12.9 °C 30.20in /  1022.6hPa SSE 7.0mph /  11.3km/h 9.0mph /  14.5km/h 66% 0.00in /  0mm
12:50 67.3 °F /  19.6 °C 53.8 °F /  12.1 °C 30.20in /  1022.6hPa SSW 6.0mph /  9.7km/h 6.0mph /  9.7km/h 62% 0.00in /  0mm
12:55 67.3 °F /  19.6 °C 53.4 °F /  11.9 °C 30.20in /  1022.6hPa SW 2.0mph /  3.2km/h 4.0mph /  6.4km/h 61% 0.00in /  0mm
13:00 68.0 °F /  20 °C 54.1 °F /  12.3 °C 30.20in /  1022.6hPa ESE 8.0mph /  12.9km/h 11.0mph /  17.7km/h 61% 0.00in /  0mm
13:05 67.4 °F /  19.7 °C 53.5 °F /  11.9 °C 30.20in /  1022.6hPa SW 5.0mph /  8km/h 9.0mph /  14.5km/h 61% 0.00in /  0mm
13:10 67.2 °F /  19.6 °C 51.9 °F /  11.1 °C 30.20in /  1022.6hPa West 3.0mph /  4.8km/h 6.0mph /  9.7km/h 58% 0.00in /  0mm
13:15 68.3 °F /  20.2 °C 54.3 °F /  12.4 °C 30.20in /  1022.6hPa SE 4.0mph /  6.4km/h 7.0mph /  11.3km/h 61% 0.00in /  0mm
13:20 69.2 °F /  20.7 °C 53.8 °F /  12.1 °C 30.20in /  1022.6hPa West 4.0mph /  6.4km/h 9.0mph /  14.5km/h 58% 0.00in /  0mm
13:26 69.0 °F /  20.6 °C 53.2 °F /  11.8 °C 30.20in /  1022.6hPa SW 2.0mph /  3.2km/h 10.0mph /  16.1km/h 57% 0.00in /  0mm
13:31 68.7 °F /  20.4 °C 51.9 °F /  11.1 °C 30.20in /  1022.6hPa SSE 3.0mph /  4.8km/h 6.0mph /  9.7km/h 55% 0.00in /  0mm
13:36 68.2 °F /  20.1 °C 52.4 °F /  11.3 °C 30.19in /  1022.2hPa WSW 5.0mph /  8km/h 8.0mph /  12.9km/h 57% 0.00in /  0mm
13:41 68.9 °F /  20.5 °C 52.1 °F /  11.2 °C 30.20in /  1022.6hPa SE 7.0mph /  11.3km/h 9.0mph /  14.5km/h 55% 0.00in /  0mm
13:46 69.3 °F /  20.7 °C 53.4 °F /  11.9 °C 30.19in /  1022.2hPa SSE 5.0mph /  8km/h 8.0mph /  12.9km/h 57% 0.00in /  0mm
13:51 68.9 °F /  20.5 °C 52.1 °F /  11.2 °C 30.19in /  1022.2hPa SSE 7.0mph /  11.3km/h 9.0mph /  14.5km/h 55% 0.00in /  0mm
13:56 68.8 °F /  20.4 °C 51.5 °F /  10.8 °C 30.19in /  1022.2hPa SE 3.0mph /  4.8km/h 7.0mph /  11.3km/h 54% 0.00in /  0mm
14:01 69.3 °F /  20.7 °C 50.4 °F /  10.2 °C 30.19in /  1022.2hPa SSE 7.0mph /  11.3km/h 14.0mph /  22.5km/h 51% 0.00in /  0mm
14:07 69.4 °F /  20.8 °C 50.0 °F /  10 °C 30.19in /  1022.2hPa SSE 2.0mph /  3.2km/h 8.0mph /  12.9km/h 50% 0.00in /  0mm
14:12 69.9 °F /  21.1 °C 49.9 °F /  9.9 °C 30.19in /  1022.2hPa ESE 8.0mph /  12.9km/h 10.0mph /  16.1km/h 49% 0.00in /  0mm
14:17 69.4 °F /  20.8 °C 50.5 °F /  10.3 °C 30.19in /  1022.2hPa South 3.0mph /  4.8km/h 5.0mph /  8km/h 51% 0.00in /  0mm
14:22 69.9 °F /  21.1 °C 52.0 °F /  11.1 °C 30.19in /  1022.2hPa WSW 6.0mph /  9.7km/h 7.0mph /  11.3km/h 53% 0.00in /  0mm
14:27 70.3 °F /  21.3 °C 50.8 °F /  10.4 °C 30.18in /  1021.9hPa SW 3.0mph /  4.8km/h 6.0mph /  9.7km/h 50% 0.00in /  0mm
14:32 70.1 °F /  21.2 °C 49.5 °F /  9.7 °C 30.18in /  1021.9hPa Calm   3.0mph /  4.8km/h 48% 0.00in /  0mm
14:37 70.8 °F /  21.6 °C 50.2 °F /  10.1 °C 30.18in /  1021.9hPa SSW 1.0mph /  1.6km/h 2.0mph /  3.2km/h 48% 0.00in /  0mm
14:42 71.6 °F /  22 °C 52.0 °F /  11.1 °C 30.18in /  1021.9hPa WSW 7.0mph /  11.3km/h 7.0mph /  11.3km/h 50% 0.00in /  0mm
14:48 70.1 °F /  21.2 °C 51.7 °F /  10.9 °C 30.18in /  1021.9hPa WNW 3.0mph /  4.8km/h 6.0mph /  9.7km/h 52% 0.00in /  0mm
14:53 69.1 °F /  20.6 °C 50.2 °F /  10.1 °C 30.17in /  1021.6hPa WNW 1.0mph /  1.6km/h 6.0mph /  9.7km/h 51% 0.00in /  0mm
14:58 69.5 °F /  20.8 °C 51.1 °F /  10.6 °C 30.17in /  1021.6hPa SSE 5.0mph /  8km/h 7.0mph /  11.3km/h 52% 0.00in /  0mm
15:03 70.5 °F /  21.4 °C 51.5 °F /  10.8 °C 30.17in /  1021.6hPa SSW 2.0mph /  3.2km/h 9.0mph /  14.5km/h 51% 0.00in /  0mm
15:08 70.9 °F /  21.6 °C 52.4 °F /  11.3 °C 30.17in /  1021.6hPa SSE 3.0mph /  4.8km/h 5.0mph /  8km/h 52% 0.00in /  0mm
15:13 71.5 °F /  21.9 °C 52.4 °F /  11.3 °C 30.17in /  1021.6hPa SSW 4.0mph /  6.4km/h 9.0mph /  14.5km/h 51% 0.00in /  0mm
15:18 72.0 °F /  22.2 °C 50.1 °F /  10.1 °C 30.17in /  1021.6hPa Calm   4.0mph /  6.4km/h 46% 0.00in /  0mm
15:23 72.6 °F /  22.6 °C 49.5 °F /  9.7 °C 30.17in /  1021.6hPa WSW 6.0mph /  9.7km/h 17.0mph /  27.4km/h 44% 0.00in /  0mm
15:25 72.1 °F /  22.3 °C 50.2 °F /  10.1 °C 30.17in /  1021.6hPa SSE 5.0mph /  8km/h 7.0mph /  11.3km/h 46% 0.00in /  0mm
15:30 72.2 °F /  22.3 °C 50.9 °F /  10.5 °C 30.17in /  1021.6hPa SSE 6.0mph /  9.7km/h 8.0mph /  12.9km/h 47% 0.00in /  0mm
15:35 72.5 °F /  22.5 °C 53.9 °F /  12.2 °C 30.17in /  1021.6hPa South 4.0mph /  6.4km/h 6.0mph /  9.7km/h 52% 0.00in /  0mm
15:41 72.0 °F /  22.2 °C 51.8 °F /  11 °C 30.17in /  1021.6hPa ESE 4.0mph /  6.4km/h 8.0mph /  12.9km/h 49% 0.00in /  0mm
15:46 71.7 °F /  22.1 °C 53.2 °F /  11.8 °C 30.17in /  1021.6hPa SE 7.0mph /  11.3km/h 7.0mph /  11.3km/h 52% 0.00in /  0mm
15:51 71.6 °F /  22 °C 53.1 °F /  11.7 °C 30.17in /  1021.6hPa SE 6.0mph /  9.7km/h 7.0mph /  11.3km/h 52% 0.00in /  0mm
15:56 71.5 °F /  21.9 °C 50.8 °F /  10.4 °C 30.16in /  1021.2hPa SSE 5.0mph /  8km/h 7.0mph /  11.3km/h 48% 0.00in /  0mm
16:01 72.0 °F /  22.2 °C 52.4 °F /  11.3 °C 30.16in /  1021.2hPa South 7.0mph /  11.3km/h 9.0mph /  14.5km/h 50% 0.00in /  0mm
16:06 72.5 °F /  22.5 °C 53.4 °F /  11.9 °C 30.16in /  1021.2hPa SSW 7.0mph /  11.3km/h 7.0mph /  11.3km/h 51% 0.00in /  0mm
16:11 71.9 °F /  22.2 °C 51.2 °F /  10.7 °C 30.16in /  1021.2hPa South 3.0mph /  4.8km/h 7.0mph /  11.3km/h 48% 0.00in /  0mm
16:16 71.3 °F /  21.8 °C 50.6 °F /  10.3 °C 30.16in /  1021.2hPa SW 2.0mph /  3.2km/h 4.0mph /  6.4km/h 48% 0.00in /  0mm
16:21 71.6 °F /  22 °C 52.0 °F /  11.1 °C 30.16in /  1021.2hPa SE 6.0mph /  9.7km/h 6.0mph /  9.7km/h 50% 0.00in /  0mm
16:26 71.9 °F /  22.2 °C 53.3 °F /  11.8 °C 30.15in /  1020.9hPa ESE 4.0mph /  6.4km/h 8.0mph /  12.9km/h 52% 0.00in /  0mm
16:31 71.8 °F /  22.1 °C 53.8 °F /  12.1 °C 30.15in /  1020.9hPa ESE 4.0mph /  6.4km/h 6.0mph /  9.7km/h 53% 0.00in /  0mm
16:36 71.7 °F /  22.1 °C 52.6 °F /  11.4 °C 30.15in /  1020.9hPa ESE 3.0mph /  4.8km/h 5.0mph /  8km/h 51% 0.00in /  0mm
16:42 72.4 °F /  22.4 °C 53.8 °F /  12.1 °C 30.15in /  1020.9hPa SE 1.0mph /  1.6km/h 3.0mph /  4.8km/h 52% 0.00in /  0mm
16:47 72.8 °F /  22.7 °C 51.4 °F /  10.8 °C 30.15in /  1020.9hPa South 5.0mph /  8km/h 9.0mph /  14.5km/h 47% 0.00in /  0mm
16:52 72.9 °F /  22.7 °C 50.9 °F /  10.5 °C 30.15in /  1020.9hPa South 3.0mph /  4.8km/h 7.0mph /  11.3km/h 46% 0.00in /  0mm
16:57 72.8 °F /  22.7 °C 50.8 °F /  10.4 °C 30.14in /  1020.5hPa WSW 3.0mph /  4.8km/h 9.0mph /  14.5km/h 46% 0.00in /  0mm
17:02 72.4 °F /  22.4 °C 50.5 °F /  10.3 °C 30.14in /  1020.5hPa SW 4.0mph /  6.4km/h 5.0mph /  8km/h 46% 0.00in /  0mm
17:07 72.1 °F /  22.3 °C 51.3 °F /  10.7 °C 30.14in /  1020.5hPa Calm   2.0mph /  3.2km/h 48% 0.00in /  0mm
17:12 72.4 °F /  22.4 °C 52.7 °F /  11.5 °C 30.15in /  1020.9hPa WSW 1.0mph /  1.6km/h 1.0mph /  1.6km/h 50% 0.00in /  0mm
17:18 71.9 °F /  22.2 °C 51.2 °F /  10.7 °C 30.15in /  1020.9hPa SW 2.0mph /  3.2km/h 4.0mph /  6.4km/h 48% 0.00in /  0mm
17:23 71.4 °F /  21.9 °C 50.7 °F /  10.4 °C 30.15in /  1020.9hPa SSW 1.0mph /  1.6km/h 1.0mph /  1.6km/h 48% 0.00in /  0mm
17:28 71.6 °F /  22 °C 50.9 °F /  10.5 °C 30.15in /  1020.9hPa ESE 6.0mph /  9.7km/h 6.0mph /  9.7km/h 48% 0.00in /  0mm
17:33 71.5 °F /  21.9 °C 50.8 °F /  10.4 °C 30.15in /  1020.9hPa North 1.0mph /  1.6km/h 2.0mph /  3.2km/h 48% 0.00in /  0mm
17:38 71.6 °F /  22 °C 50.9 °F /  10.5 °C 30.15in /  1020.9hPa Calm   3.0mph /  4.8km/h 48% 0.00in /  0mm
17:43 71.9 °F /  22.2 °C 51.7 °F /  10.9 °C 30.15in /  1020.9hPa West 3.0mph /  4.8km/h 3.0mph /  4.8km/h 49% 0.00in /  0mm
17:48 72.0 °F /  22.2 °C 52.9 °F /  11.6 °C 30.15in /  1020.9hPa WSW 1.0mph /  1.6km/h 2.0mph /  3.2km/h 51% 0.00in /  0mm
17:53 72.0 °F /  22.2 °C 51.3 °F /  10.7 °C 30.15in /  1020.9hPa SW 6.0mph /  9.7km/h 6.0mph /  9.7km/h 48% 0.00in /  0mm
17:58 71.5 °F /  21.9 °C 51.9 °F /  11.1 °C 30.15in /  1020.9hPa Calm   4.0mph /  6.4km/h 50% 0.00in /  0mm
18:03 71.2 °F /  21.8 °C 51.6 °F /  10.9 °C 30.15in /  1020.9hPa SW 2.0mph /  3.2km/h 3.0mph /  4.8km/h 50% 0.00in /  0mm
18:08 70.8 °F /  21.6 °C 51.3 °F /  10.7 °C 30.16in /  1021.2hPa SW 1.0mph /  1.6km/h 4.0mph /  6.4km/h 50% 0.00in /  0mm
18:09 70.7 °F /  21.5 °C 52.2 °F /  11.2 °C 30.15in /  1020.9hPa SW 3.0mph /  4.8km/h 3.0mph /  4.8km/h 52% 0.00in /  0mm
18:15 70.4 °F /  21.3 °C 52.5 °F /  11.4 °C 30.15in /  1020.9hPa SW 1.0mph /  1.6km/h 2.0mph /  3.2km/h 53% 0.00in /  0mm
18:20 70.5 °F /  21.4 °C 52.0 °F /  11.1 °C 30.15in /  1020.9hPa Calm   1.0mph /  1.6km/h 52% 0.00in /  0mm
18:25 70.7 °F /  21.5 °C 51.7 °F /  10.9 °C 30.16in /  1021.2hPa SW 1.0mph /  1.6km/h 2.0mph /  3.2km/h 51% 0.00in /  0mm
18:30 70.9 °F /  21.6 °C 51.3 °F /  10.7 °C 30.16in /  1021.2hPa Calm   1.0mph /  1.6km/h 50% 0.00in /  0mm
18:36 71.1 °F /  21.7 °C 52.1 °F /  11.2 °C 30.16in /  1021.2hPa Calm   2.0mph /  3.2km/h 51% 0.00in /  0mm
18:37 71.1 °F /  21.7 °C 51.5 °F /  10.8 °C 30.16in /  1021.2hPa Calm   2.0mph /  3.2km/h 50% 0.00in /  0mm
18:42 71.4 °F /  21.9 °C 51.3 °F /  10.7 °C 30.15in /  1020.9hPa Calm   1.0mph /  1.6km/h 49% 0.00in /  0mm
18:47 71.6 °F /  22 °C 53.1 °F /  11.7 °C 30.15in /  1020.9hPa Calm     52% 0.00in /  0mm
18:52 71.4 °F /  21.9 °C 53.9 °F /  12.2 °C 30.15in /  1020.9hPa ESE 1.0mph /  1.6km/h 1.0mph /  1.6km/h 54% 0.00in /  0mm
18:57 70.8 °F /  21.6 °C 53.3 °F /  11.8 °C 30.15in /  1020.9hPa Calm   1.0mph /  1.6km/h 54% 0.00in /  0mm
19:02 70.9 °F /  21.6 °C 52.4 °F /  11.3 °C 30.16in /  1021.2hPa Calm     52% 0.00in /  0mm
19:07 71.0 °F /  21.7 °C 53.0 °F /  11.7 °C 30.15in /  1020.9hPa Calm     53% 0.00in /  0mm
19:12 70.8 °F /  21.6 °C 52.8 °F /  11.6 °C 30.15in /  1020.9hPa Calm     53% 0.00in /  0mm
19:18 70.9 °F /  21.6 °C 54.4 °F /  12.4 °C 30.15in /  1020.9hPa ESE 1.0mph /  1.6km/h 1.0mph /  1.6km/h 56% 0.00in /  0mm
19:23 71.0 °F /  21.7 °C 51.5 °F /  10.8 °C 30.15in /  1020.9hPa East 1.0mph /  1.6km/h 1.0mph /  1.6km/h 50% 0.00in /  0mm
19:28 70.8 °F /  21.6 °C 51.3 °F /  10.7 °C 30.15in /  1020.9hPa Calm   2.0mph /  3.2km/h 50% 0.00in /  0mm
19:33 70.6 °F /  21.4 °C 51.1 °F /  10.6 °C 30.15in /  1020.9hPa ENE 1.0mph /  1.6km/h 1.0mph /  1.6km/h 50% 0.00in /  0mm
19:37 70.3 °F /  21.3 °C 51.9 °F /  11.1 °C 30.15in /  1020.9hPa Calm   1.0mph /  1.6km/h 52% 0.00in /  0mm
19:43 70.0 °F /  21.1 °C 51.1 °F /  10.6 °C 30.15in /  1020.9hPa Calm   1.0mph /  1.6km/h 51% 0.00in /  0mm
19:48 69.8 °F /  21 °C 52.4 °F /  11.3 °C 30.15in /  1020.9hPa Calm   1.0mph /  1.6km/h 54% 0.00in /  0mm
19:53 69.4 °F /  20.8 °C 52.0 °F /  11.1 °C 30.15in /  1020.9hPa Calm   1.0mph /  1.6km/h 54% 0.00in /  0mm
19:58 69.1 °F /  20.6 °C 51.8 °F /  11 °C 30.15in /  1020.9hPa Calm     54% 0.00in /  0mm
20:03 68.8 °F /  20.4 °C 52.0 °F /  11.1 °C 30.15in /  1020.9hPa ENE 1.0mph /  1.6km/h 1.0mph /  1.6km/h 55% 0.00in /  0mm
20:08 68.3 °F /  20.2 °C 52.5 °F /  11.4 °C 30.15in /  1020.9hPa Calm   1.0mph /  1.6km/h 57% 0.00in /  0mm
20:13 67.9 °F /  19.9 °C 52.1 °F /  11.2 °C 30.15in /  1020.9hPa Calm     57% 0.00in /  0mm
20:18 67.3 °F /  19.6 °C 52.5 °F /  11.4 °C 30.15in /  1020.9hPa Calm     59% 0.00in /  0mm
20:23 66.4 °F /  19.1 °C 52.6 °F /  11.4 °C 30.15in /  1020.9hPa Calm     61% 0.00in /  0mm
20:28 65.7 °F /  18.7 °C 52.8 °F /  11.6 °C 30.15in /  1020.9hPa Calm     63% 0.00in /  0mm
20:33 64.9 °F /  18.3 °C 52.9 °F /  11.6 °C 30.15in /  1020.9hPa Calm     65% 0.00in /  0mm
20:38 64.0 °F /  17.8 °C 52.8 °F /  11.6 °C 30.15in /  1020.9hPa Calm     67% 0.00in /  0mm
20:43 63.3 °F /  17.4 °C 53.0 °F /  11.7 °C 30.15in /  1020.9hPa ENE 1.0mph /  1.6km/h 1.0mph /  1.6km/h 69% 0.00in /  0mm
20:48 63.5 °F /  17.5 °C 53.2 °F /  11.8 °C 30.15in /  1020.9hPa ENE 1.0mph /  1.6km/h 1.0mph /  1.6km/h 69% 0.00in /  0mm
20:54 63.4 °F /  17.4 °C 53.5 °F /  11.9 °C 30.15in /  1020.9hPa Calm   1.0mph /  1.6km/h 70% 0.00in /  0mm
20:59 62.7 °F /  17.1 °C 53.5 °F /  11.9 °C 30.15in /  1020.9hPa Calm   1.0mph /  1.6km/h 72% 0.00in /  0mm
21:04 62.2 °F /  16.8 °C 52.7 °F /  11.5 °C 30.15in /  1020.9hPa Calm     71% 0.00in /  0mm
21:09 61.9 °F /  16.6 °C 52.8 °F /  11.6 °C 30.15in /  1020.9hPa Calm     72% 0.00in /  0mm
21:14 61.4 °F /  16.3 °C 53.0 °F /  11.7 °C 30.16in /  1021.2hPa Calm     74% 0.00in /  0mm
21:19 61.0 °F /  16.1 °C 52.7 °F /  11.5 °C 30.16in /  1021.2hPa Calm     74% 0.00in /  0mm
21:24 60.4 °F /  15.8 °C 52.5 °F /  11.4 °C 30.16in /  1021.2hPa Calm     75% 0.00in /  0mm
21:29 59.9 °F /  15.5 °C 52.3 °F /  11.3 °C 30.16in /  1021.2hPa Calm     76% 0.00in /  0mm
21:34 59.7 °F /  15.4 °C 52.1 °F /  11.2 °C 30.16in /  1021.2hPa Calm     76% 0.00in /  0mm
21:39 59.6 °F /  15.3 °C 52.4 °F /  11.3 °C 30.17in /  1021.6hPa Calm     77% 0.00in /  0mm
21:44 59.4 °F /  15.2 °C 52.5 °F /  11.4 °C 30.17in /  1021.6hPa Calm     78% 0.00in /  0mm
21:49 59.1 °F /  15.1 °C 52.3 °F /  11.3 °C 30.17in /  1021.6hPa Calm     78% 0.00in /  0mm
21:54 58.6 °F /  14.8 °C 52.5 °F /  11.4 °C 30.17in /  1021.6hPa Calm     80% 0.00in /  0mm
21:59 58.3 °F /  14.6 °C 52.5 °F /  11.4 °C 30.17in /  1021.6hPa Calm     81% 0.00in /  0mm
22:04 58.4 °F /  14.7 °C 52.6 °F /  11.4 °C 30.17in /  1021.6hPa Calm   1.0mph /  1.6km/h 81% 0.00in /  0mm
22:09 58.6 °F /  14.8 °C 53.1 °F /  11.7 °C 30.17in /  1021.6hPa WSW 2.0mph /  3.2km/h 4.0mph /  6.4km/h 82% 0.00in /  0mm
22:14 58.8 °F /  14.9 °C 53.7 °F /  12.1 °C 30.17in /  1021.6hPa Calm   3.0mph /  4.8km/h 83% 0.00in /  0mm
22:19 58.7 °F /  14.8 °C 53.6 °F /  12 °C 30.17in /  1021.6hPa SSW 1.0mph /  1.6km/h 1.0mph /  1.6km/h 83% 0.00in /  0mm
22:24 58.6 °F /  14.8 °C 53.1 °F /  11.7 °C 30.16in /  1021.2hPa Calm   1.0mph /  1.6km/h 82% 0.00in /  0mm
22:29 58.7 °F /  14.8 °C 52.9 °F /  11.6 °C 30.16in /  1021.2hPa Calm     81% 0.00in /  0mm
22:35 58.5 °F /  14.7 °C 52.7 °F /  11.5 °C 30.16in /  1021.2hPa Calm     81% 0.00in /  0mm
22:40 58.4 °F /  14.7 °C 52.6 °F /  11.4 °C 30.16in /  1021.2hPa Calm     81% 0.00in /  0mm
22:45 58.3 °F /  14.6 °C 52.5 °F /  11.4 °C 30.17in /  1021.6hPa Calm     81% 0.00in /  0mm
22:50 58.0 °F /  14.4 °C 52.5 °F /  11.4 °C 30.16in /  1021.2hPa Calm     82% 0.00in /  0mm
22:56 57.6 °F /  14.2 °C 52.2 °F /  11.2 °C 30.16in /  1021.2hPa Calm     82% 0.00in /  0mm
23:01 57.6 °F /  14.2 °C 52.2 °F /  11.2 °C 30.16in /  1021.2hPa Calm     82% 0.00in /  0mm
23:06 57.3 °F /  14.1 °C 51.9 °F /  11.1 °C 30.15in /  1020.9hPa Calm     82% 0.00in /  0mm
23:11 57.1 °F /  13.9 °C 51.3 °F /  10.7 °C 30.15in /  1020.9hPa Calm     81% 0.00in /  0mm
23:16 56.8 °F /  13.8 °C 51.7 °F /  10.9 °C 30.15in /  1020.9hPa Calm     83% 0.00in /  0mm
23:21 56.3 °F /  13.5 °C 50.9 °F /  10.5 °C 30.15in /  1020.9hPa Calm     82% 0.00in /  0mm
23:27 56.3 °F /  13.5 °C 50.5 °F /  10.3 °C 30.15in /  1020.9hPa Calm   1.0mph /  1.6km/h 81% 0.00in /  0mm
23:32 56.9 °F /  13.8 °C 50.1 °F /  10.1 °C 30.15in /  1020.9hPa Calm   1.0mph /  1.6km/h 78% 0.00in /  0mm
23:37 57.5 °F /  14.2 °C 50.0 °F /  10 °C 30.15in /  1020.9hPa SE 1.0mph /  1.6km/h 1.0mph /  1.6km/h 76% 0.00in /  0mm
23:42 58.3 °F /  14.6 °C 49.3 °F /  9.6 °C 30.14in /  1020.5hPa SE 1.0mph /  1.6km/h 1.0mph /  1.6km/h 72% 0.00in /  0mm
23:47 58.7 °F /  14.8 °C 48.6 °F /  9.2 °C 30.15in /  1020.9hPa Calm   1.0mph /  1.6km/h 69% 0.00in /  0mm
23:52 58.3 °F /  14.6 °C 49.0 °F /  9.4 °C 30.15in /  1020.9hPa Calm     71% 0.00in /  0mm
23:57 57.6 °F /  14.2 °C 50.1 °F /  10.1 °C 30.15in /  1020.9hPa Calm     76% 0.00in /  0mm
Compliments of Weather Underground